createdAt,value
2017-01-04T00:00:09.569Z,-2.3
2017-01-04T00:01:09.139Z,-2.34
2017-01-04T00:02:09.095Z,-2.43
2017-01-04T00:03:09.052Z,-2.48
2017-01-04T00:04:09.393Z,-2.48
2017-01-04T00:05:09.347Z,-2.56
2017-01-04T00:06:08.924Z,-2.68
2017-01-04T00:07:09.264Z,-2.61
2017-01-04T00:08:09.218Z,-2.79
2017-01-04T00:09:09.180Z,-2.82
2017-01-04T00:10:09.130Z,-2.81
2017-01-04T00:11:09.090Z,-2.84
2017-01-04T00:12:08.660Z,-2.89
2017-01-04T00:13:09.005Z,-2.88
2017-01-04T00:14:08.576Z,-2.88
2017-01-04T00:15:08.916Z,-2.92
2017-01-04T00:16:08.487Z,-3.02
2017-01-04T00:17:08.828Z,-2.96
2017-01-04T00:18:08.785Z,-2.99
2017-01-04T00:19:08.355Z,-2.99
2017-01-04T00:20:08.698Z,-3.02
2017-01-04T00:21:08.277Z,-2.96
2017-01-04T00:22:08.227Z,-2.99
2017-01-04T00:23:08.565Z,-2.91
2017-01-04T00:24:08.525Z,-2.91
2017-01-04T00:25:08.099Z,-2.86
2017-01-04T00:26:08.054Z,-2.85
2017-01-04T00:27:08.012Z,-2.85
2017-01-04T00:28:08.350Z,-2.82
2017-01-04T00:29:08.303Z,-2.82
2017-01-04T00:30:07.875Z,-2.86
2017-01-04T00:31:07.833Z,-2.88
2017-01-04T00:32:07.409Z,-2.78
2017-01-04T00:33:08.150Z,-2.79
2017-01-04T00:34:08.085Z,-2.79
2017-01-04T00:35:08.046Z,-2.77
2017-01-04T00:36:07.997Z,-2.79
2017-01-04T00:37:07.187Z,-2.78
2017-01-04T00:38:07.534Z,-2.82
2017-01-04T00:39:07.483Z,-2.84
2017-01-04T00:40:07.441Z,-2.85
2017-01-04T00:41:07.779Z,-2.85
2017-01-04T00:42:07.355Z,-2.81
2017-01-04T00:43:07.305Z,-2.77
2017-01-04T00:44:07.650Z,-2.78
2017-01-04T00:45:07.219Z,-2.78
2017-01-04T00:46:07.566Z,-2.68
2017-01-04T00:47:07.138Z,-2.67
2017-01-04T00:48:06.707Z,-2.73
2017-01-04T00:49:07.431Z,-2.67
2017-01-04T00:50:06.617Z,-2.63
2017-01-04T00:51:07.346Z,-2.64
2017-01-04T00:52:07.301Z,-2.49
2017-01-04T00:53:06.486Z,-2.58
2017-01-04T00:54:07.217Z,-2.52
2017-01-04T00:55:06.783Z,-2.49
2017-01-04T00:56:07.128Z,-2.53
2017-01-04T00:57:07.082Z,-2.42
2017-01-04T00:58:07.040Z,-2.5
2017-01-04T00:59:06.996Z,-2.49
2017-01-04T01:00:06.954Z,-2.4
2017-01-04T01:01:06.909Z,-2.46
2017-01-04T01:02:06.874Z,-2.49
2017-01-04T01:03:06.051Z,-2.45
2017-01-04T01:04:06.778Z,-2.4
2017-01-04T01:05:06.737Z,-2.34
2017-01-04T01:06:06.690Z,-2.29
2017-01-04T01:07:06.649Z,-2.42
2017-01-04T01:08:06.220Z,-2.35
2017-01-04T01:09:06.561Z,-2.37
2017-01-04T01:10:06.160Z,-2.39
2017-01-04T01:11:06.090Z,-2.37
2017-01-04T01:12:05.668Z,-2.42
2017-01-04T01:13:06.385Z,-2.34
2017-01-04T01:14:05.963Z,-2.34
2017-01-04T01:15:05.526Z,-2.43
2017-01-04T01:16:06.252Z,-2.4
2017-01-04T01:17:06.215Z,-2.32
2017-01-04T01:18:05.781Z,-2.42
2017-01-04T01:19:05.741Z,-2.46
2017-01-04T01:20:06.083Z,-2.39
2017-01-04T01:21:05.656Z,-2.42
2017-01-04T01:22:05.616Z,-2.4
2017-01-04T01:23:05.562Z,-2.4
2017-01-04T01:24:05.905Z,-2.4
2017-01-04T01:25:05.868Z,-2.42
2017-01-04T01:26:05.432Z,-2.5
2017-01-04T01:27:05.773Z,-2.49
2017-01-04T01:28:05.347Z,-2.53
2017-01-04T01:29:05.687Z,-2.5
2017-01-04T01:30:05.258Z,-2.61
2017-01-04T01:31:05.214Z,-2.56
2017-01-04T01:32:05.178Z,-2.68
2017-01-04T01:33:05.128Z,-2.64
2017-01-04T01:34:05.089Z,-2.64
2017-01-04T01:35:04.655Z,-2.67
2017-01-04T01:36:04.999Z,-2.58
2017-01-04T01:37:04.958Z,-2.66
2017-01-04T01:38:05.306Z,-2.56
2017-01-04T01:39:05.059Z,-2.58
2017-01-04T01:40:05.897Z,-2.52
2017-01-04T01:41:04.785Z,-2.53
2017-01-04T01:42:05.124Z,-2.55
2017-01-04T01:43:04.698Z,-2.48
2017-01-04T01:44:04.652Z,-2.58
2017-01-04T01:45:04.991Z,-2.56
2017-01-04T01:46:04.951Z,-2.49
2017-01-04T01:47:04.515Z,-2.52
2017-01-04T01:48:04.475Z,-2.5
2017-01-04T01:49:04.433Z,-2.55
2017-01-04T01:50:04.385Z,-2.5
2017-01-04T01:51:04.345Z,-2.42
2017-01-04T01:52:04.299Z,-2.55
2017-01-04T01:53:04.644Z,-2.52
2017-01-04T01:54:03.828Z,-2.49
2017-01-04T01:55:04.171Z,-2.46
2017-01-04T01:56:04.514Z,-2.42
2017-01-04T01:57:04.464Z,-2.35
2017-01-04T01:58:04.430Z,-2.34
2017-01-04T01:59:03.995Z,-2.37
2017-01-04T02:00:03.950Z,-2.39
2017-01-04T02:01:03.908Z,-2.3
2017-01-04T02:02:03.861Z,-2.26
2017-01-04T02:03:04.211Z,-2.23
2017-01-04T02:04:03.772Z,-2.16
2017-01-04T02:05:03.734Z,-2.18
2017-01-04T02:06:04.078Z,-2.18
2017-01-04T02:07:03.643Z,-2.1
2017-01-04T02:08:03.987Z,-2.16
2017-01-04T02:09:03.942Z,-2.18
2017-01-04T02:10:03.132Z,-2.18
2017-01-04T02:11:03.853Z,-2.12
2017-01-04T02:12:03.814Z,-2.08
2017-01-04T02:13:02.997Z,-2.08
2017-01-04T02:14:03.725Z,-2.16
2017-01-04T02:15:03.714Z,-2.2
2017-01-04T02:16:03.640Z,-2.16
2017-01-04T02:17:03.602Z,-2.05
2017-01-04T02:18:03.173Z,-2.13
2017-01-04T02:19:03.506Z,-2.05
2017-01-04T02:20:03.468Z,-2.08
2017-01-04T02:21:03.423Z,-2.1
2017-01-04T02:22:03.378Z,-1.98
2017-01-04T02:23:02.947Z,-2
2017-01-04T02:24:02.907Z,-1.92
2017-01-04T02:25:03.249Z,-1.98
2017-01-04T02:26:03.220Z,-2.05
2017-01-04T02:27:02.772Z,-2.08
2017-01-04T02:28:02.759Z,-1.97
2017-01-04T02:29:03.076Z,-1.92
2017-01-04T02:30:02.260Z,-1.95
2017-01-04T02:31:02.597Z,-1.97
2017-01-04T02:32:02.170Z,-1.98
2017-01-04T02:33:02.896Z,-1.94
2017-01-04T02:34:02.855Z,-1.88
2017-01-04T02:35:02.820Z,-1.92
2017-01-04T02:36:02.794Z,-1.87
2017-01-04T02:37:02.743Z,-1.76
2017-01-04T02:38:02.718Z,-1.87
2017-01-04T02:39:02.258Z,-1.82
2017-01-04T02:40:02.215Z,-1.91
2017-01-04T02:41:02.161Z,-1.85
2017-01-04T02:42:02.115Z,-1.73
2017-01-04T02:43:02.466Z,-1.76
2017-01-04T02:44:02.423Z,-1.73
2017-01-04T02:45:02.381Z,-1.74
2017-01-04T02:46:02.330Z,-1.72
2017-01-04T02:47:01.904Z,-1.72
2017-01-04T02:48:01.864Z,-1.73
2017-01-04T02:49:02.198Z,-1.76
2017-01-04T02:50:02.160Z,-1.67
2017-01-04T02:51:01.736Z,-1.7
2017-01-04T02:52:02.072Z,-1.72
2017-01-04T02:53:02.028Z,-1.61
2017-01-04T02:54:01.987Z,-1.73
2017-01-04T02:55:01.942Z,-1.72
2017-01-04T02:56:01.905Z,-1.59
2017-01-04T02:57:01.863Z,-1.69
2017-01-04T02:58:01.810Z,-1.66
2017-01-04T02:59:01.770Z,-1.55
2017-01-04T03:00:01.722Z,-1.61
2017-01-04T03:01:01.298Z,-1.56
2017-01-04T03:02:01.639Z,-1.55
2017-01-04T03:03:01.207Z,-1.55
2017-01-04T03:04:01.166Z,-1.54
2017-01-04T03:05:01.119Z,-1.61
2017-01-04T03:06:01.079Z,-1.52
2017-01-04T03:07:01.420Z,-1.52
2017-01-04T03:08:01.383Z,-1.58
2017-01-04T03:09:00.953Z,-1.52
2017-01-04T03:10:00.913Z,-1.56
2017-01-04T03:11:00.860Z,-1.52
2017-01-04T03:12:00.819Z,-1.54
2017-01-04T03:13:01.172Z,-1.51
2017-01-04T03:14:00.733Z,-1.45
2017-01-04T03:15:01.073Z,-1.58
2017-01-04T03:16:01.033Z,-1.52
2017-01-04T03:17:00.603Z,-1.55
2017-01-04T03:18:00.557Z,-1.54
2017-01-04T03:19:00.901Z,-1.46
2017-01-04T03:20:00.886Z,-1.46
2017-01-04T03:21:00.820Z,-1.48
2017-01-04T03:22:00.387Z,-1.41
2017-01-04T03:23:00.732Z,-1.37
2017-01-04T03:23:59.915Z,-1.4
2017-01-04T03:25:00.637Z,-1.37
2017-01-04T03:26:00.600Z,-1.38
2017-01-04T03:27:00.555Z,-1.4
2017-01-04T03:27:59.759Z,-1.3
2017-01-04T03:29:00.468Z,-1.27
2017-01-04T03:30:00.424Z,-1.33
2017-01-04T03:31:00.384Z,-1.3
2017-01-04T03:32:00.336Z,-1.28
2017-01-04T03:33:00.293Z,-1.23
2017-01-04T03:33:59.865Z,-1.35
2017-01-04T03:35:00.208Z,-1.25
2017-01-04T03:36:00.162Z,-1.2
2017-01-04T03:37:00.117Z,-1.34
2017-01-04T03:38:00.085Z,-1.17
2017-01-04T03:39:00.039Z,-1.15
2017-01-04T03:39:59.994Z,-1.22
2017-01-04T03:40:59.583Z,-1.17
2017-01-04T03:41:59.905Z,-1.17
2017-01-04T03:42:59.861Z,-1.28
2017-01-04T03:43:59.818Z,-1.17
2017-01-04T03:44:59.388Z,-1.17
2017-01-04T03:45:59.740Z,-1.13
2017-01-04T03:46:59.306Z,-1.19
2017-01-04T03:47:59.278Z,-1.19
2017-01-04T03:48:59.604Z,-1.17
2017-01-04T03:49:59.558Z,-1.17
2017-01-04T03:50:59.516Z,-1.12
2017-01-04T03:51:59.472Z,-1.16
2017-01-04T03:52:59.429Z,-1.15
2017-01-04T03:53:59.005Z,-1.17
2017-01-04T03:54:58.575Z,-1.19
2017-01-04T03:55:59.302Z,-1.17
2017-01-04T03:56:58.870Z,-1.13
2017-01-04T03:57:58.831Z,-1.1
2017-01-04T03:58:58.785Z,-1.19
2017-01-04T03:59:59.132Z,-1.19
2017-01-04T04:00:59.087Z,-1.09
2017-01-04T04:01:58.655Z,-1.1
2017-01-04T04:02:58.999Z,-1.2
2017-01-04T04:03:58.568Z,-1.13
2017-01-04T04:04:58.911Z,-1.09
2017-01-04T04:05:58.867Z,-1.09
2017-01-04T04:06:58.457Z,-1.09
2017-01-04T04:07:58.780Z,-1.05
2017-01-04T04:08:58.351Z,-1.02
2017-01-04T04:09:58.697Z,-1.12
2017-01-04T04:10:58.268Z,-1.02
2017-01-04T04:11:58.222Z,-0.98
2017-01-04T04:12:58.563Z,-1.02
2017-01-04T04:13:58.138Z,-0.99
2017-01-04T04:14:58.478Z,-1.12
2017-01-04T04:15:57.664Z,-1.01
2017-01-04T04:16:58.393Z,-1.1
2017-01-04T04:17:58.361Z,-1.09
2017-01-04T04:18:57.926Z,-1.1
2017-01-04T04:19:57.876Z,-1.05
2017-01-04T04:20:58.217Z,-1.04
2017-01-04T04:21:57.404Z,-1.01
2017-01-04T04:22:58.130Z,-1.05
2017-01-04T04:23:57.705Z,-1.09
2017-01-04T04:24:58.047Z,-1.02
2017-01-04T04:25:57.621Z,-0.99
2017-01-04T04:26:57.959Z,-1.01
2017-01-04T04:27:57.917Z,-1.01
2017-01-04T04:28:57.877Z,-1.07
2017-01-04T04:29:57.835Z,-0.99
2017-01-04T04:30:57.403Z,-1.04
2017-01-04T04:31:57.741Z,-1.02
2017-01-04T04:32:57.702Z,-1.02
2017-01-04T04:33:57.658Z,-0.98
2017-01-04T04:34:57.611Z,-1.07
2017-01-04T04:35:57.577Z,-1.09
2017-01-04T04:36:57.535Z,-1.07
2017-01-04T04:37:57.486Z,-1.02
2017-01-04T04:38:57.059Z,-1.04
2017-01-04T04:39:57.015Z,-1.04
2017-01-04T04:40:57.357Z,-0.97
2017-01-04T04:41:57.313Z,-1.04
2017-01-04T04:42:57.280Z,-0.97
2017-01-04T04:43:57.229Z,-0.98
2017-01-04T04:44:57.187Z,-0.97
2017-01-04T04:45:57.147Z,-1.07
2017-01-04T04:46:56.714Z,-0.99
2017-01-04T04:47:57.067Z,-1.01
2017-01-04T04:48:57.012Z,-1.01
2017-01-04T04:49:56.973Z,-0.98
2017-01-04T04:50:56.927Z,-0.86
2017-01-04T04:51:56.498Z,-0.97
2017-01-04T04:52:56.845Z,-1.01
2017-01-04T04:53:56.800Z,-1.02
2017-01-04T04:54:56.752Z,-0.99
2017-01-04T04:55:56.709Z,-0.98
2017-01-04T04:56:56.661Z,-0.98
2017-01-04T04:57:56.239Z,-0.99
2017-01-04T04:58:56.583Z,-0.98
2017-01-04T04:59:56.149Z,-0.97
2017-01-04T05:00:56.106Z,-0.99
2017-01-04T05:01:56.479Z,-1.01
2017-01-04T05:02:55.631Z,-0.99
2017-01-04T05:03:56.363Z,-0.99
2017-01-04T05:04:56.318Z,-0.95
2017-01-04T05:05:56.277Z,-0.99
2017-01-04T05:06:56.227Z,-1.01
2017-01-04T05:07:55.808Z,-0.99
2017-01-04T05:08:55.762Z,-1.01
2017-01-04T05:09:56.116Z,-0.91
2017-01-04T05:10:56.061Z,-0.91
2017-01-04T05:11:56.028Z,-0.92
2017-01-04T05:12:56.005Z,-0.92
2017-01-04T05:13:55.544Z,-0.92
2017-01-04T05:14:55.889Z,-0.85
2017-01-04T05:15:55.460Z,-0.92
2017-01-04T05:16:55.802Z,-0.8
2017-01-04T05:17:55.379Z,-0.78
2017-01-04T05:18:55.716Z,-0.79
2017-01-04T05:19:55.285Z,-0.7
2017-01-04T05:20:55.629Z,-0.72
2017-01-04T05:21:55.586Z,-0.72
2017-01-04T05:22:55.163Z,-0.78
2017-01-04T05:23:55.503Z,-0.58
2017-01-04T05:24:55.071Z,-0.58
2017-01-04T05:25:55.026Z,-0.61
2017-01-04T05:26:55.365Z,-0.54
2017-01-04T05:27:54.936Z,-0.47
2017-01-04T05:28:55.279Z,-0.44
2017-01-04T05:29:55.248Z,-0.46
2017-01-04T05:30:54.809Z,-0.4
2017-01-04T05:31:54.771Z,-0.46
2017-01-04T05:32:54.720Z,-0.36
2017-01-04T05:33:54.709Z,-0.4
2017-01-04T05:34:55.024Z,-0.36
2017-01-04T05:35:54.980Z,-0.36
2017-01-04T05:36:54.940Z,-0.4
2017-01-04T05:37:54.904Z,-0.39
2017-01-04T05:38:54.851Z,-0.34
2017-01-04T05:39:54.426Z,-0.26
2017-01-04T05:40:54.763Z,-0.23
2017-01-04T05:41:54.720Z,-0.26
2017-01-04T05:42:54.680Z,-0.21
2017-01-04T05:43:54.247Z,-0.18
2017-01-04T05:44:54.203Z,-0.16
2017-01-04T05:45:54.543Z,-0.14
2017-01-04T05:46:54.506Z,-0.03
2017-01-04T05:47:54.082Z,-0.07
2017-01-04T05:48:54.417Z,-0.14
2017-01-04T05:49:54.372Z,-0.11
2017-01-04T05:50:53.943Z,-0.11
2017-01-04T05:51:53.902Z,-0.15
2017-01-04T05:52:54.241Z,-0.18
2017-01-04T05:53:54.198Z,-0.25
2017-01-04T05:54:53.768Z,-0.23
2017-01-04T05:55:53.729Z,-0.21
2017-01-04T05:56:53.296Z,-0.31
2017-01-04T05:57:54.027Z,-0.33
2017-01-04T05:58:53.983Z,-0.36
2017-01-04T05:59:53.554Z,-0.42
2017-01-04T06:00:53.897Z,-0.36
2017-01-04T06:01:53.853Z,-0.44
2017-01-04T06:02:53.424Z,-0.44
2017-01-04T06:03:53.381Z,-0.49
2017-01-04T06:04:53.722Z,-0.58
2017-01-04T06:05:53.678Z,-0.55
2017-01-04T06:06:53.634Z,-0.6
2017-01-04T06:07:53.590Z,-0.61
2017-01-04T06:08:53.164Z,-0.62
2017-01-04T06:09:53.506Z,-0.67
2017-01-04T06:10:53.073Z,-0.7
2017-01-04T06:11:53.419Z,-0.73
2017-01-04T06:12:53.374Z,-0.78
2017-01-04T06:13:52.945Z,-0.78
2017-01-04T06:14:53.296Z,-0.83
2017-01-04T06:15:53.247Z,-0.73
2017-01-04T06:16:52.812Z,-0.78
2017-01-04T06:17:52.385Z,-0.79
2017-01-04T06:18:52.722Z,-0.91
2017-01-04T06:19:52.692Z,-0.89
2017-01-04T06:20:53.034Z,-0.82
2017-01-04T06:21:52.602Z,-0.85
2017-01-04T06:22:52.960Z,-0.91
2017-01-04T06:23:52.516Z,-0.8
2017-01-04T06:24:52.081Z,-0.85
2017-01-04T06:25:52.814Z,-0.82
2017-01-04T06:26:52.772Z,-0.78
2017-01-04T06:27:52.722Z,-0.79
2017-01-04T06:28:52.678Z,-0.79
2017-01-04T06:29:52.639Z,-0.76
2017-01-04T06:30:52.595Z,-0.73
2017-01-04T06:31:52.161Z,-0.75
2017-01-04T06:32:52.507Z,-0.7
2017-01-04T06:33:52.458Z,-0.75
2017-01-04T06:34:52.034Z,-0.67
2017-01-04T06:35:52.376Z,-0.72
2017-01-04T06:36:52.330Z,-0.76
2017-01-04T06:37:52.294Z,-0.62
2017-01-04T06:38:52.242Z,-0.62
2017-01-04T06:39:52.202Z,-0.55
2017-01-04T06:40:51.783Z,-0.58
2017-01-04T06:41:52.127Z,-0.61
2017-01-04T06:42:51.691Z,-0.54
2017-01-04T06:43:52.029Z,-0.61
2017-01-04T06:44:51.607Z,-0.52
2017-01-04T06:45:51.948Z,-0.61
2017-01-04T06:46:51.893Z,-0.57
2017-01-04T06:47:51.884Z,-0.49
2017-01-04T06:48:51.426Z,-0.46
2017-01-04T06:49:51.770Z,-0.54
2017-01-04T06:50:51.722Z,-0.51
2017-01-04T06:51:51.680Z,-0.54
2017-01-04T06:52:51.637Z,-0.54
2017-01-04T06:53:51.596Z,-0.46
2017-01-04T06:54:50.778Z,-0.47
2017-01-04T06:55:51.513Z,-0.52
2017-01-04T06:56:51.092Z,-0.49
2017-01-04T06:57:51.044Z,-0.52
2017-01-04T06:58:51.379Z,-0.46
2017-01-04T06:59:50.950Z,-0.47
2017-01-04T07:00:51.291Z,-0.55
2017-01-04T07:01:50.864Z,-0.44
2017-01-04T07:02:51.214Z,-0.51
2017-01-04T07:03:51.158Z,-0.49
2017-01-04T07:04:50.345Z,-0.55
2017-01-04T07:05:51.078Z,-0.52
2017-01-04T07:06:51.034Z,-0.4
2017-01-04T07:07:50.988Z,-0.47
2017-01-04T07:08:50.558Z,-0.52
2017-01-04T07:09:50.902Z,-0.39
2017-01-04T07:10:50.474Z,-0.37
2017-01-04T07:11:50.425Z,-0.34
2017-01-04T07:12:50.410Z,-0.39
2017-01-04T07:13:50.728Z,-0.34
2017-01-04T07:14:49.914Z,-0.42
2017-01-04T07:15:50.256Z,-0.29
2017-01-04T07:16:50.212Z,-0.43
2017-01-04T07:17:50.561Z,-0.29
2017-01-04T07:18:50.127Z,-0.37
2017-01-04T07:19:50.468Z,-0.37
2017-01-04T07:20:50.422Z,-0.36
2017-01-04T07:21:50.379Z,-0.29
2017-01-04T07:22:50.340Z,-0.28
2017-01-04T07:23:50.291Z,-0.16
2017-01-04T07:24:50.250Z,-0.19
2017-01-04T07:25:50.201Z,-0.15
2017-01-04T07:26:49.775Z,-0.21
2017-01-04T07:27:50.118Z,-0.15
2017-01-04T07:28:50.076Z,-0.22
2017-01-04T07:29:50.031Z,-0.19
2017-01-04T07:30:49.601Z,-0.16
2017-01-04T07:31:49.939Z,-0.1
2017-01-04T07:32:49.902Z,-0.21
2017-01-04T07:33:49.858Z,-0.19
2017-01-04T07:34:49.810Z,-0.14
2017-01-04T07:35:49.775Z,-0.1
2017-01-04T07:36:49.728Z,-0.08
2017-01-04T07:37:49.685Z,-0.07
2017-01-04T07:38:49.261Z,-0.08
2017-01-04T07:39:49.599Z,-0.03
2017-01-04T07:40:49.172Z,-0.08
2017-01-04T07:41:49.513Z,-0.04
2017-01-04T07:42:48.697Z,-0.04
2017-01-04T07:43:49.421Z,-0.03
2017-01-04T07:44:49.380Z,0.03
2017-01-04T07:45:49.339Z,0.03
2017-01-04T07:46:49.310Z,0.03
2017-01-04T07:47:48.861Z,0.04
2017-01-04T07:48:48.823Z,0.03
2017-01-04T07:49:49.165Z,0
2017-01-04T07:50:49.121Z,0.14
2017-01-04T07:51:48.691Z,0.04
2017-01-04T07:52:48.646Z,0.15
2017-01-04T07:53:48.605Z,0.18
2017-01-04T07:54:48.574Z,0.13
2017-01-04T07:55:48.517Z,0.2
2017-01-04T07:56:48.504Z,0.21
2017-01-04T07:57:48.818Z,0.2
2017-01-04T07:58:48.774Z,0.21
2017-01-04T07:59:48.734Z,0.17
2017-01-04T08:00:48.694Z,0.21
2017-01-04T08:01:48.647Z,0.18
2017-01-04T08:02:48.218Z,0.21
2017-01-04T08:03:48.561Z,0.23
2017-01-04T08:04:48.517Z,0.23
2017-01-04T08:05:48.471Z,0.28
2017-01-04T08:06:48.431Z,0.31
2017-01-04T08:07:48.001Z,0.26
2017-01-04T08:08:47.957Z,0.24
2017-01-04T08:09:48.299Z,0.24
2017-01-04T08:10:48.260Z,0.24
2017-01-04T08:11:48.216Z,0.36
2017-01-04T08:12:47.789Z,0.31
2017-01-04T08:13:48.126Z,0.28
2017-01-04T08:14:47.314Z,0.28
2017-01-04T08:15:47.656Z,0.26
2017-01-04T08:16:47.998Z,0.31
2017-01-04T08:17:47.952Z,0.26
2017-01-04T08:18:47.911Z,0.36
2017-01-04T08:19:47.873Z,0.39
2017-01-04T08:20:47.439Z,0.36
2017-01-04T08:21:47.781Z,0.33
2017-01-04T08:22:47.739Z,0.41
2017-01-04T08:23:47.697Z,0.42
2017-01-04T08:24:47.266Z,0.49
2017-01-04T08:25:47.618Z,0.47
2017-01-04T08:26:47.187Z,0.51
2017-01-04T08:27:47.536Z,0.49
2017-01-04T08:28:47.481Z,0.46
2017-01-04T08:29:47.436Z,0.47
2017-01-04T08:30:47.401Z,0.51
2017-01-04T08:31:47.350Z,0.51
2017-01-04T08:32:46.933Z,0.57
2017-01-04T08:33:46.884Z,0.57
2017-01-04T08:34:47.229Z,0.66
2017-01-04T08:35:46.793Z,0.62
2017-01-04T08:36:46.769Z,0.65
2017-01-04T08:37:47.100Z,0.66
2017-01-04T08:38:47.054Z,0.62
2017-01-04T08:39:46.625Z,0.68
2017-01-04T08:40:46.196Z,0.68
2017-01-04T08:41:46.931Z,0.72
2017-01-04T08:42:46.496Z,0.65
2017-01-04T08:43:46.841Z,0.72
2017-01-04T08:44:46.412Z,0.73
2017-01-04T08:45:46.761Z,0.66
2017-01-04T08:46:46.714Z,0.73
2017-01-04T08:47:46.291Z,0.76
2017-01-04T08:48:46.634Z,0.73
2017-01-04T08:49:46.203Z,0.73
2017-01-04T08:50:46.545Z,0.76
2017-01-04T08:51:46.134Z,0.79
2017-01-04T08:52:46.071Z,0.76
2017-01-04T08:53:46.416Z,0.88
2017-01-04T08:54:46.374Z,0.78
2017-01-04T08:55:45.563Z,0.87
2017-01-04T08:56:46.291Z,0.83
2017-01-04T08:57:45.859Z,0.86
2017-01-04T08:58:45.821Z,0.86
2017-01-04T08:59:46.163Z,0.91
2017-01-04T09:00:46.125Z,0.86
2017-01-04T09:01:45.691Z,0.84
2017-01-04T09:02:46.031Z,0.88
2017-01-04T09:03:45.993Z,0.9
2017-01-04T09:04:45.566Z,0.91
2017-01-04T09:05:45.906Z,0.94
2017-01-04T09:06:45.863Z,0.88
2017-01-04T09:07:45.438Z,0.94
2017-01-04T09:08:45.778Z,0.94
2017-01-04T09:09:45.755Z,0.94
2017-01-04T09:10:45.694Z,0.93
2017-01-04T09:11:45.264Z,0.96
2017-01-04T09:12:45.220Z,0.93
2017-01-04T09:13:45.564Z,0.91
2017-01-04T09:14:45.520Z,0.94
2017-01-04T09:15:44.711Z,1.05
2017-01-04T09:16:45.442Z,0.96
2017-01-04T09:17:45.403Z,1
2017-01-04T09:18:44.969Z,0.94
2017-01-04T09:19:45.312Z,0.91
2017-01-04T09:20:44.886Z,0.98
2017-01-04T09:21:44.847Z,0.98
2017-01-04T09:22:45.186Z,0.91
2017-01-04T09:23:44.759Z,0.91
2017-01-04T09:24:45.109Z,0.93
2017-01-04T09:25:45.054Z,0.93
2017-01-04T09:26:45.015Z,0.96
2017-01-04T09:27:44.592Z,0.96
2017-01-04T09:28:44.546Z,0.94
2017-01-04T09:29:44.890Z,0.88
2017-01-04T09:30:44.462Z,0.98
2017-01-04T09:31:44.418Z,1
2017-01-04T09:32:44.760Z,1
2017-01-04T09:33:44.717Z,1.05
2017-01-04T09:34:44.290Z,1.02
2017-01-04T09:35:44.661Z,1
2017-01-04T09:36:44.206Z,1.09
2017-01-04T09:37:44.548Z,0.96
2017-01-04T09:38:43.735Z,1.08
2017-01-04T09:39:44.470Z,1.06
2017-01-04T09:40:44.432Z,1.12
2017-01-04T09:41:44.375Z,1.02
2017-01-04T09:42:43.567Z,1
2017-01-04T09:43:44.295Z,1
2017-01-04T09:44:44.252Z,0.98
2017-01-04T09:45:43.820Z,0.97
2017-01-04T09:46:43.779Z,0.94
2017-01-04T09:47:44.125Z,0.91
2017-01-04T09:48:44.082Z,0.88
2017-01-04T09:49:43.654Z,1.02
2017-01-04T09:50:43.996Z,0.98
2017-01-04T09:51:43.955Z,1.08
2017-01-04T09:52:43.527Z,1.02
2017-01-04T09:53:43.485Z,1.04
2017-01-04T09:54:43.444Z,1.05
2017-01-04T09:55:43.782Z,1.08
2017-01-04T09:56:43.740Z,1.05
2017-01-04T09:57:43.700Z,1.05
2017-01-04T09:58:43.273Z,1.06
2017-01-04T09:59:42.846Z,1.09
2017-01-04T10:00:43.580Z,1.09
2017-01-04T10:01:43.534Z,0.97
2017-01-04T10:02:43.485Z,1.02
2017-01-04T10:03:43.443Z,1.05
2017-01-04T10:04:43.023Z,0.98
2017-01-04T10:05:43.366Z,0.88
2017-01-04T10:06:42.932Z,0.91
2017-01-04T10:07:43.270Z,1.04
2017-01-04T10:08:43.231Z,1.04
2017-01-04T10:09:42.812Z,1.06
2017-01-04T10:10:42.761Z,1.08
2017-01-04T10:11:42.723Z,1.02
2017-01-04T10:12:43.062Z,1.08
2017-01-04T10:13:43.043Z,0.97
2017-01-04T10:14:42.979Z,1.02
2017-01-04T10:15:42.554Z,1.09
2017-01-04T10:16:42.895Z,1.06
2017-01-04T10:17:42.463Z,1.06
2017-01-04T10:18:42.807Z,1.04
2017-01-04T10:19:42.379Z,1.06
2017-01-04T10:20:42.339Z,1.05
2017-01-04T10:21:41.917Z,1.09
2017-01-04T10:22:42.647Z,1.02
2017-01-04T10:23:42.593Z,1.04
2017-01-04T10:24:42.167Z,1.11
2017-01-04T10:25:42.511Z,1.06
2017-01-04T10:26:42.113Z,1.06
2017-01-04T10:27:42.428Z,0.98
2017-01-04T10:28:42.000Z,0.98
2017-01-04T10:29:41.992Z,0.98
2017-01-04T10:30:41.913Z,1.02
2017-01-04T10:31:41.884Z,1.02
2017-01-04T10:32:42.214Z,0.98
2017-01-04T10:33:42.169Z,0.91
2017-01-04T10:34:42.126Z,1.04
2017-01-04T10:35:42.090Z,0.91
2017-01-04T10:36:41.666Z,0.98
2017-01-04T10:37:42.001Z,1.06
2017-01-04T10:38:41.959Z,0.94
2017-01-04T10:39:41.915Z,0.91
2017-01-04T10:40:41.492Z,0.96
2017-01-04T10:41:41.447Z,0.94
2017-01-04T10:42:41.791Z,0.96
2017-01-04T10:43:41.363Z,0.93
2017-01-04T10:44:41.708Z,0.94
2017-01-04T10:45:41.663Z,0.93
2017-01-04T10:46:41.235Z,0.9
2017-01-04T10:47:41.191Z,0.91
2017-01-04T10:48:41.539Z,0.93
2017-01-04T10:49:41.523Z,0.93
2017-01-04T10:50:41.449Z,0.91
2017-01-04T10:51:41.406Z,0.94
2017-01-04T10:52:41.363Z,0.91
2017-01-04T10:53:40.937Z,0.93
2017-01-04T10:54:40.892Z,0.94
2017-01-04T10:55:40.854Z,0.91
2017-01-04T10:56:40.811Z,0.9
2017-01-04T10:57:41.155Z,0.98
2017-01-04T10:58:40.724Z,0.93
2017-01-04T10:59:41.072Z,1.06
2017-01-04T11:00:41.026Z,1.02
2017-01-04T11:01:41.384Z,1.08
2017-01-04T11:02:40.945Z,0.97
2017-01-04T11:03:40.895Z,1.06
2017-01-04T11:04:40.858Z,1.06
2017-01-04T11:05:40.819Z,0.98
2017-01-04T11:06:40.777Z,1.06
2017-01-04T11:07:40.342Z,1.04
2017-01-04T11:08:40.685Z,1.06
2017-01-04T11:09:40.643Z,1.02
2017-01-04T11:10:40.604Z,1
2017-01-04T11:11:40.574Z,1.06
2017-01-04T11:12:40.521Z,1.14
2017-01-04T11:13:40.475Z,1.12
2017-01-04T11:14:40.438Z,1.12
2017-01-04T11:15:40.385Z,1.18
2017-01-04T11:16:40.347Z,1.29
2017-01-04T11:17:40.305Z,1.27
2017-01-04T11:18:40.262Z,1.22
2017-01-04T11:19:39.835Z,1.3
2017-01-04T11:20:40.182Z,1.3
2017-01-04T11:21:40.139Z,1.26
2017-01-04T11:22:40.095Z,1.22
2017-01-04T11:23:39.663Z,1.32
2017-01-04T11:24:39.623Z,1.33
2017-01-04T11:25:39.965Z,1.29
2017-01-04T11:26:39.925Z,1.26
2017-01-04T11:27:39.500Z,1.23
2017-01-04T11:28:39.457Z,1.36
2017-01-04T11:29:39.797Z,1.27
2017-01-04T11:30:39.369Z,1.29
2017-01-04T11:31:39.712Z,1.3
2017-01-04T11:32:39.286Z,1.27
2017-01-04T11:33:39.630Z,1.23
2017-01-04T11:34:39.199Z,1.24
2017-01-04T11:35:39.545Z,1.33
2017-01-04T11:36:39.503Z,1.26
2017-01-04T11:37:39.076Z,1.32
2017-01-04T11:38:39.422Z,1.45
2017-01-04T11:39:39.380Z,1.37
2017-01-04T11:40:38.983Z,1.36
2017-01-04T11:41:39.288Z,1.42
2017-01-04T11:42:39.254Z,1.41
2017-01-04T11:43:39.208Z,1.42
2017-01-04T11:44:39.162Z,1.44
2017-01-04T11:45:38.764Z,1.45
2017-01-04T11:46:38.307Z,1.47
2017-01-04T11:47:39.040Z,1.45
2017-01-04T11:48:38.994Z,1.47
2017-01-04T11:49:38.565Z,1.52
2017-01-04T11:50:38.911Z,1.55
2017-01-04T11:51:38.881Z,1.55
2017-01-04T11:52:38.829Z,1.54
2017-01-04T11:53:38.398Z,1.48
2017-01-04T11:54:38.360Z,1.58
2017-01-04T11:55:38.703Z,1.62
2017-01-04T11:56:38.282Z,1.65
2017-01-04T11:57:38.620Z,1.7
2017-01-04T11:58:38.189Z,1.63
2017-01-04T11:59:38.543Z,1.69
2017-01-04T12:00:37.731Z,1.6
2017-01-04T12:01:38.451Z,1.65
2017-01-04T12:02:38.020Z,1.63
2017-01-04T12:03:38.372Z,1.66
2017-01-04T12:04:37.559Z,1.72
2017-01-04T12:05:38.279Z,1.77
2017-01-04T12:06:37.854Z,1.81
2017-01-04T12:07:38.201Z,1.81
2017-01-04T12:08:38.159Z,1.79
2017-01-04T12:09:37.734Z,1.79
2017-01-04T12:10:37.684Z,1.77
2017-01-04T12:11:38.028Z,1.8
2017-01-04T12:12:37.989Z,1.76
2017-01-04T12:13:37.567Z,1.68
2017-01-04T12:14:37.902Z,1.72
2017-01-04T12:15:37.862Z,1.73
2017-01-04T12:16:37.434Z,1.72
2017-01-04T12:17:37.782Z,1.77
2017-01-04T12:18:37.734Z,1.81
2017-01-04T12:19:36.926Z,1.84
2017-01-04T12:20:36.891Z,1.81
2017-01-04T12:21:37.231Z,1.83
2017-01-04T12:22:37.571Z,1.84
2017-01-04T12:23:37.143Z,1.87
2017-01-04T12:24:36.718Z,1.88
2017-01-04T12:25:37.447Z,1.87
2017-01-04T12:26:37.403Z,1.88
2017-01-04T12:27:36.623Z,1.93
2017-01-04T12:28:36.936Z,1.98
2017-01-04T12:29:37.281Z,1.95
2017-01-04T12:30:37.248Z,1.93
2017-01-04T12:31:37.199Z,1.98
2017-01-04T12:32:37.149Z,2.02
2017-01-04T12:33:37.113Z,1.91
2017-01-04T12:34:36.682Z,1.93
2017-01-04T12:35:37.029Z,1.91
2017-01-04T12:36:36.993Z,1.93
2017-01-04T12:37:36.948Z,2.02
2017-01-04T12:38:36.902Z,1.95
2017-01-04T12:39:36.860Z,1.91
2017-01-04T12:40:36.437Z,1.93
2017-01-04T12:41:36.783Z,1.98
2017-01-04T12:42:36.736Z,1.93
2017-01-04T12:43:36.697Z,2.02
2017-01-04T12:44:36.268Z,1.93
2017-01-04T12:45:36.619Z,1.98
2017-01-04T12:46:36.571Z,1.98
2017-01-04T12:47:36.144Z,1.86
2017-01-04T12:48:35.716Z,1.93
2017-01-04T12:49:36.060Z,1.93
2017-01-04T12:50:36.413Z,1.87
2017-01-04T12:51:36.365Z,1.9
2017-01-04T12:52:36.320Z,1.9
2017-01-04T12:53:36.281Z,1.9
2017-01-04T12:54:36.234Z,1.91
2017-01-04T12:55:36.192Z,1.93
2017-01-04T12:56:36.159Z,1.93
2017-01-04T12:57:36.116Z,1.91
2017-01-04T12:58:35.681Z,1.95
2017-01-04T12:59:36.026Z,1.9
2017-01-04T13:00:35.604Z,1.93
2017-01-04T13:01:35.944Z,1.98
2017-01-04T13:02:35.522Z,1.88
2017-01-04T13:03:35.869Z,1.86
2017-01-04T13:04:35.826Z,1.83